Aviation Digital Data Service (ADDS)

Output produced by METARs form (1501 UTC 26 March 2017)
found at http://www.aviationweather.gov/adds/metars/
 
KESN 261450Z 10009G15KT 4SM BR OVC006 08/06 A3039